createdAt,value
2018-05-18T00:00:16.218Z,80.05
2018-05-18T00:02:46.178Z,80.77
2018-05-18T00:05:14.573Z,80.53
2018-05-18T00:07:42.920Z,81.28
2018-05-18T00:10:11.267Z,81.67
2018-05-18T00:12:39.667Z,81.98
2018-05-18T00:15:08.018Z,82.08
2018-05-18T00:17:36.456Z,82.38
2018-05-18T00:20:04.791Z,82.50
2018-05-18T00:22:33.135Z,82.24
2018-05-18T00:25:01.535Z,82.47
2018-05-18T00:27:29.877Z,82.57
2018-05-18T00:29:58.209Z,82.30
2018-05-18T00:32:26.566Z,82.56
2018-05-18T00:34:55.148Z,83.09
2018-05-18T00:37:23.618Z,83.71
2018-05-18T00:39:52.057Z,83.36
2018-05-18T00:42:20.348Z,83.26
2018-05-18T00:44:48.684Z,83.49
2018-05-18T00:47:17.067Z,83.36
2018-05-18T00:49:45.500Z,83.87
2018-05-18T00:52:13.857Z,83.94
2018-05-18T00:54:42.188Z,83.89
2018-05-18T00:57:10.534Z,83.56
2018-05-18T00:59:38.875Z,83.57
2018-05-18T01:02:07.226Z,83.46
2018-05-18T01:04:35.579Z,84.22
2018-05-18T01:07:04.304Z,84.59
2018-05-18T01:09:32.648Z,85.03
2018-05-18T01:12:01.003Z,85.23
2018-05-18T01:14:34.748Z,85.46
2018-05-18T01:17:02.892Z,85.18
2018-05-18T01:19:31.284Z,85.28
2018-05-18T01:21:59.772Z,85.66
2018-05-18T01:24:28.127Z,85.24
2018-05-18T01:26:56.457Z,85.81
2018-05-18T01:29:24.862Z,85.94
2018-05-18T01:31:53.205Z,85.73
2018-05-18T01:34:21.551Z,85.18
2018-05-18T01:36:49.900Z,85.07
2018-05-18T01:39:18.360Z,85.92
2018-05-18T01:41:46.701Z,85.99
2018-05-18T01:44:15.125Z,85.90
2018-05-18T01:46:43.535Z,86.07
2018-05-18T01:49:15.879Z,86.14
2018-05-18T01:51:44.290Z,86.32
2018-05-18T01:54:12.649Z,86.48
2018-05-18T01:56:41.077Z,86.37
2018-05-18T01:59:09.436Z,87.10
2018-05-18T02:01:37.759Z,86.76
2018-05-18T02:04:06.142Z,86.77
2018-05-18T02:06:34.478Z,86.72
2018-05-18T02:09:02.804Z,87.43
2018-05-18T02:11:31.153Z,87.21
2018-05-18T02:13:59.481Z,87.39
2018-05-18T02:16:27.834Z,87.07
2018-05-18T02:18:56.180Z,87.31
2018-05-18T02:21:24.526Z,87.44
2018-05-18T02:23:52.988Z,87.44
2018-05-18T02:26:21.324Z,87.29
2018-05-18T02:28:49.670Z,87.62
2018-05-18T02:31:18.008Z,88.14
2018-05-18T02:33:46.351Z,87.52
2018-05-18T02:36:14.702Z,88.07
2018-05-18T02:38:43.047Z,88.68
2018-05-18T02:41:11.439Z,88.54
2018-05-18T02:43:39.771Z,88.28
2018-05-18T02:46:08.101Z,88.35
2018-05-18T02:48:36.460Z,88.51
2018-05-18T02:51:05.255Z,88.32
2018-05-18T02:53:33.680Z,88.63
2018-05-18T02:56:02.116Z,88.56
2018-05-18T02:58:30.487Z,89.44
2018-05-18T03:00:58.819Z,89.13
2018-05-18T03:03:27.152Z,89.11
2018-05-18T03:05:55.574Z,89.07
2018-05-18T03:08:23.939Z,89.01
2018-05-18T03:10:52.264Z,89.11
2018-05-18T03:13:20.614Z,89.21
2018-05-18T03:15:48.928Z,89.33
2018-05-18T03:18:17.368Z,89.33
2018-05-18T03:20:46.280Z,89.50
2018-05-18T03:23:14.634Z,89.61
2018-05-18T03:25:43.401Z,89.75
2018-05-18T03:28:11.738Z,89.82
2018-05-18T03:30:40.170Z,90.19
2018-05-18T03:33:08.493Z,89.89
2018-05-18T03:35:36.860Z,89.57
2018-05-18T03:38:05.183Z,89.54
2018-05-18T03:40:33.520Z,89.61
2018-05-18T03:43:01.871Z,89.42
2018-05-18T03:45:30.218Z,89.18
2018-05-18T03:47:58.602Z,89.30
2018-05-18T03:50:27.360Z,88.97
2018-05-18T03:52:55.816Z,88.25
2018-05-18T03:55:24.270Z,88.17
2018-05-18T03:57:52.848Z,87.87
2018-05-18T04:00:21.456Z,87.29
2018-05-18T04:03:02.290Z,87.21
2018-05-18T04:05:42.435Z,86.14
2018-05-18T04:08:22.660Z,85.89
2018-05-18T04:10:51.048Z,85.55
2018-05-18T04:13:19.383Z,85.02
2018-05-18T04:15:47.833Z,84.90
2018-05-18T04:18:16.175Z,84.20
2018-05-18T04:20:44.855Z,84.04
2018-05-18T04:23:13.482Z,84.32
2018-05-18T04:25:42.127Z,83.88
2018-05-18T04:28:10.503Z,84.94
2018-05-18T04:30:38.839Z,84.77
2018-05-18T04:33:07.181Z,84.20
2018-05-18T04:35:35.516Z,84.70
2018-05-18T04:38:03.917Z,84.08
2018-05-18T04:40:32.231Z,83.77
2018-05-18T04:43:00.572Z,80.62
2018-05-18T04:45:28.926Z,79.75
2018-05-18T04:47:57.346Z,78.97
2018-05-18T04:50:25.683Z,78.28
2018-05-18T04:52:54.030Z,78.60
2018-05-18T04:55:22.401Z,79.15
2018-05-18T04:57:50.816Z,78.40
2018-05-18T05:00:19.237Z,78.41
2018-05-18T05:02:47.714Z,80.24
2018-05-18T05:05:16.073Z,80.14
2018-05-18T05:07:44.462Z,80.06
2018-05-18T05:10:13.106Z,79.29
2018-05-18T05:12:41.490Z,80.28
2018-05-18T05:15:09.785Z,80.09
2018-05-18T05:17:38.173Z,80.48
2018-05-18T05:20:06.646Z,78.92
2018-05-18T05:22:35.087Z,78.49
2018-05-18T05:25:03.468Z,79.87
2018-05-18T05:27:31.827Z,78.44
2018-05-18T05:30:00.225Z,77.48
2018-05-18T05:32:28.561Z,77.71
2018-05-18T05:34:56.907Z,78.65
2018-05-18T05:37:25.252Z,78.53
2018-05-18T05:39:53.743Z,78.08
2018-05-18T05:42:22.108Z,78.42
2018-05-18T05:44:50.421Z,78.49
2018-05-18T05:47:19.280Z,78.72
2018-05-18T05:49:47.614Z,77.65
2018-05-18T05:52:15.959Z,78.48
2018-05-18T05:54:44.350Z,77.25
2018-05-18T05:57:12.745Z,76.39
2018-05-18T05:59:41.088Z,77.36
2018-05-18T06:02:09.959Z,76.19
2018-05-18T06:04:38.297Z,76.01
2018-05-18T06:07:06.713Z,75.88
2018-05-18T06:09:35.547Z,75.63
2018-05-18T06:12:03.864Z,76.15
2018-05-18T06:14:32.214Z,76.04
2018-05-18T06:17:00.578Z,74.58
2018-05-18T06:19:29.056Z,75.56
2018-05-18T06:21:57.386Z,75.04
2018-05-18T06:24:25.730Z,73.90
2018-05-18T06:26:54.155Z,73.06
2018-05-18T06:29:22.507Z,73.24
2018-05-18T06:31:50.835Z,73.33
2018-05-18T06:34:19.184Z,72.93
2018-05-18T06:36:47.524Z,74.17
2018-05-18T06:39:16.236Z,74.36
2018-05-18T06:41:44.609Z,71.56
2018-05-18T06:44:12.965Z,71.66
2018-05-18T06:46:41.349Z,71.40
2018-05-18T06:49:09.815Z,71.38
2018-05-18T06:51:38.159Z,71.39
2018-05-18T06:54:06.485Z,72.51
2018-05-18T06:56:34.872Z,69.51
2018-05-18T06:59:03.214Z,67.96
2018-05-18T07:01:31.559Z,68.94
2018-05-18T07:03:59.966Z,69.51
2018-05-18T07:06:28.267Z,68.27
2018-05-18T07:08:56.645Z,68.82
2018-05-18T07:11:28.549Z,67.28
2018-05-18T07:13:57.465Z,68.40
2018-05-18T07:16:25.942Z,67.74
2018-05-18T07:18:54.199Z,68.17
2018-05-18T07:21:22.554Z,68.35
2018-05-18T07:23:50.994Z,68.87
2018-05-18T07:26:19.427Z,69.74
2018-05-18T07:28:48.225Z,69.28
2018-05-18T07:31:16.574Z,69.71
2018-05-18T07:33:44.960Z,67.88
2018-05-18T07:36:13.403Z,68.42
2018-05-18T07:38:41.729Z,69.22
2018-05-18T07:41:10.072Z,69.45
2018-05-18T07:43:38.400Z,68.41
2018-05-18T07:46:06.743Z,68.76
2018-05-18T07:48:35.100Z,69.04
2018-05-18T07:51:03.519Z,69.78
2018-05-18T07:53:31.948Z,67.91
2018-05-18T07:56:00.303Z,69.04
2018-05-18T07:58:28.669Z,68.36
2018-05-18T08:00:56.997Z,69.52
2018-05-18T08:03:25.372Z,69.37
2018-05-18T08:05:53.723Z,68.05
2018-05-18T08:08:22.060Z,67.70
2018-05-18T08:10:50.465Z,68.02
2018-05-18T08:13:18.752Z,66.01
2018-05-18T08:15:47.105Z,69.06
2018-05-18T08:18:15.438Z,69.20
2018-05-18T08:20:43.798Z,68.46
2018-05-18T08:23:12.108Z,66.86
2018-05-18T08:25:40.463Z,67.29
2018-05-18T08:28:11.683Z,68.03
2018-05-18T08:30:51.717Z,68.25
2018-05-18T08:33:20.059Z,68.57
2018-05-18T08:35:48.500Z,67.54
2018-05-18T08:38:16.845Z,67.17
2018-05-18T08:40:45.194Z,67.04
2018-05-18T08:43:13.528Z,67.07
2018-05-18T08:45:41.973Z,67.05
2018-05-18T08:48:10.341Z,69.53
2018-05-18T08:50:41.023Z,68.13
2018-05-18T08:53:09.393Z,66.54
2018-05-18T08:55:40.109Z,66.52
2018-05-18T08:58:08.438Z,64.89
2018-05-18T09:00:36.852Z,65.32
2018-05-18T09:03:05.212Z,63.31
2018-05-18T09:05:33.568Z,65.20
2018-05-18T09:08:02.063Z,63.93
2018-05-18T09:10:30.447Z,64.00
2018-05-18T09:12:58.776Z,63.93
2018-05-18T09:15:27.100Z,64.24
2018-05-18T09:17:55.441Z,62.91
2018-05-18T09:20:23.872Z,63.95
2018-05-18T09:22:52.223Z,63.01
2018-05-18T09:25:20.556Z,64.10
2018-05-18T09:27:48.955Z,63.05
2018-05-18T09:30:17.279Z,63.59
2018-05-18T09:32:45.625Z,65.08
2018-05-18T09:35:13.963Z,63.07
2018-05-18T09:37:42.315Z,61.96
2018-05-18T09:40:10.675Z,60.88
2018-05-18T09:42:39.101Z,61.81
2018-05-18T09:45:07.556Z,62.78
2018-05-18T09:47:35.865Z,64.04
2018-05-18T09:50:04.275Z,62.95
2018-05-18T09:52:32.608Z,63.94
2018-05-18T09:55:01.101Z,66.51
2018-05-18T09:57:29.351Z,63.56
2018-05-18T09:59:57.696Z,64.39
2018-05-18T10:02:26.038Z,59.83
2018-05-18T10:04:54.433Z,62.42
2018-05-18T10:07:22.794Z,61.24
2018-05-18T10:09:51.136Z,59.97
2018-05-18T10:12:19.597Z,57.96
2018-05-18T10:14:47.891Z,59.28
2018-05-18T10:17:16.300Z,61.55
2018-05-18T10:19:44.661Z,60.68
2018-05-18T10:22:13.023Z,62.50
2018-05-18T10:24:41.363Z,63.94
2018-05-18T10:27:09.708Z,63.72
2018-05-18T10:29:38.043Z,62.65
2018-05-18T10:32:06.440Z,63.26
2018-05-18T10:34:34.841Z,63.27
2018-05-18T10:37:03.194Z,62.82
2018-05-18T10:39:31.635Z,61.77
2018-05-18T10:42:00.020Z,64.05
2018-05-18T10:44:28.359Z,61.52
2018-05-18T10:46:56.712Z,62.82
2018-05-18T10:49:25.112Z,62.12
2018-05-18T10:51:53.485Z,62.12
2018-05-18T10:54:24.731Z,64.16
2018-05-18T10:56:53.085Z,62.43
2018-05-18T10:59:21.534Z,61.70
2018-05-18T11:01:49.867Z,63.18
2018-05-18T11:04:18.195Z,60.79
2018-05-18T11:06:46.624Z,62.40
2018-05-18T11:09:15.054Z,60.30
2018-05-18T11:11:43.399Z,62.90
2018-05-18T11:14:12.058Z,62.00
2018-05-18T11:16:40.289Z,62.25
2018-05-18T11:19:08.666Z,59.21
2018-05-18T11:21:37.004Z,61.22
2018-05-18T11:24:05.335Z,58.93
2018-05-18T11:26:33.666Z,59.66
2018-05-18T11:29:02.037Z,57.43
2018-05-18T11:31:30.369Z,60.84
2018-05-18T11:33:58.716Z,58.04
2018-05-18T11:36:27.045Z,59.63
2018-05-18T11:38:55.403Z,58.85
2018-05-18T11:41:24.203Z,59.92
2018-05-18T11:43:52.590Z,59.04
2018-05-18T11:46:20.976Z,56.95
2018-05-18T11:48:49.386Z,59.35
2018-05-18T11:51:17.715Z,58.75
2018-05-18T11:53:46.074Z,59.32
2018-05-18T11:56:15.076Z,61.82
2018-05-18T11:58:43.443Z,61.15
2018-05-18T12:01:11.946Z,60.69
2018-05-18T12:03:40.279Z,62.72
2018-05-18T12:06:08.619Z,60.01
2018-05-18T12:08:37.609Z,59.86
2018-05-18T12:11:05.911Z,57.17
2018-05-18T12:13:34.258Z,58.12
2018-05-18T12:16:02.608Z,56.56
2018-05-18T12:18:30.951Z,57.29
2018-05-18T12:20:59.391Z,56.99
2018-05-18T12:23:27.788Z,57.92
2018-05-18T12:25:56.128Z,57.54
2018-05-18T12:28:24.465Z,57.38
2018-05-18T12:30:52.810Z,58.65
2018-05-18T12:33:21.152Z,57.48
2018-05-18T12:35:49.496Z,58.76
2018-05-18T12:38:18.010Z,58.62
2018-05-18T12:40:46.284Z,59.54
2018-05-18T12:43:14.729Z,56.19
2018-05-18T12:45:43.127Z,57.54
2018-05-18T12:48:11.448Z,58.61
2018-05-18T12:50:39.820Z,60.87
2018-05-18T12:53:08.150Z,57.47
2018-05-18T12:55:36.499Z,59.89
2018-05-18T12:58:04.847Z,57.20
2018-05-18T13:00:33.263Z,57.17
2018-05-18T13:03:01.681Z,55.57
2018-05-18T13:05:30.044Z,55.73
2018-05-18T13:07:58.395Z,56.71
2018-05-18T13:10:26.831Z,54.43
2018-05-18T13:12:55.323Z,54.45
2018-05-18T13:15:23.668Z,55.89
2018-05-18T13:17:52.097Z,56.58
2018-05-18T13:20:20.505Z,55.68
2018-05-18T13:22:48.895Z,57.61
2018-05-18T13:25:17.247Z,56.11
2018-05-18T13:27:45.787Z,52.44
2018-05-18T13:30:14.127Z,48.83
2018-05-18T13:32:42.467Z,51.01
2018-05-18T13:35:10.814Z,51.96
2018-05-18T13:37:39.239Z,54.14
2018-05-18T13:40:07.648Z,54.27
2018-05-18T13:42:36.997Z,54.13
2018-05-18T13:45:05.356Z,54.38
2018-05-18T13:47:33.683Z,52.83
2018-05-18T13:50:02.044Z,54.78
2018-05-18T13:52:30.419Z,55.33
2018-05-18T13:54:58.853Z,53.18
2018-05-18T13:57:27.226Z,54.40
2018-05-18T13:59:55.564Z,53.31
2018-05-18T14:02:23.921Z,55.64
2018-05-18T14:04:52.287Z,57.32
2018-05-18T14:07:20.602Z,54.15
2018-05-18T14:09:48.947Z,50.69
2018-05-18T14:12:17.284Z,48.65
2018-05-18T14:14:45.625Z,46.14
2018-05-18T14:17:14.011Z,47.66
2018-05-18T14:19:42.336Z,48.23
2018-05-18T14:22:10.675Z,53.28
2018-05-18T14:24:39.117Z,52.79
2018-05-18T14:27:07.459Z,53.81
2018-05-18T14:29:35.865Z,54.71
2018-05-18T14:32:04.207Z,56.62
2018-05-18T14:34:32.532Z,55.89
2018-05-18T14:37:00.884Z,55.19
2018-05-18T14:39:29.327Z,57.77
2018-05-18T14:41:57.704Z,58.77
2018-05-18T14:44:26.111Z,57.47
2018-05-18T14:46:54.461Z,55.99
2018-05-18T14:49:22.794Z,51.30
2018-05-18T14:51:51.239Z,52.02
2018-05-18T14:54:19.597Z,52.72
2018-05-18T14:56:48.018Z,53.13
2018-05-18T14:59:16.340Z,53.08
2018-05-18T15:01:44.714Z,53.27
2018-05-18T15:04:13.059Z,54.29
2018-05-18T15:06:41.452Z,52.19
2018-05-18T15:09:09.883Z,55.19
2018-05-18T15:11:38.284Z,54.44
2018-05-18T15:14:06.637Z,56.00
2018-05-18T15:16:34.981Z,57.52
2018-05-18T15:19:03.343Z,57.46
2018-05-18T15:21:31.696Z,57.32
2018-05-18T15:24:00.056Z,58.48
2018-05-18T15:26:28.435Z,58.00
2018-05-18T15:28:56.765Z,57.99
2018-05-18T15:31:25.093Z,59.35
2018-05-18T15:33:53.571Z,57.58
2018-05-18T15:36:22.004Z,56.17
2018-05-18T15:38:50.413Z,55.94
2018-05-18T15:41:18.784Z,54.52
2018-05-18T15:43:47.175Z,51.42
2018-05-18T15:46:15.870Z,51.25
2018-05-18T15:48:44.243Z,52.35
2018-05-18T15:51:12.659Z,54.54
2018-05-18T15:53:41.032Z,55.22
2018-05-18T15:56:09.446Z,57.09
2018-05-18T15:58:37.812Z,57.25
2018-05-18T16:01:06.140Z,58.34
2018-05-18T16:03:34.477Z,58.74
2018-05-18T16:06:02.826Z,60.61
2018-05-18T16:08:31.160Z,61.37
2018-05-18T16:10:59.491Z,61.11
2018-05-18T16:13:27.834Z,59.83
2018-05-18T16:15:56.175Z,59.81
2018-05-18T16:18:24.522Z,60.79
2018-05-18T16:20:52.875Z,60.52
2018-05-18T16:23:21.204Z,61.07
2018-05-18T16:25:49.562Z,62.31
2018-05-18T16:28:18.017Z,63.50
2018-05-18T16:30:46.313Z,62.27
2018-05-18T16:33:14.717Z,62.76
2018-05-18T16:35:43.050Z,64.26
2018-05-18T16:38:11.384Z,63.10
2018-05-18T16:40:39.760Z,61.52
2018-05-18T16:43:08.118Z,60.90
2018-05-18T16:45:36.484Z,61.69
2018-05-18T16:48:04.832Z,61.89
2018-05-18T16:50:33.268Z,61.79
2018-05-18T16:53:01.655Z,60.84
2018-05-18T16:55:30.048Z,62.17
2018-05-18T16:57:58.472Z,63.08
2018-05-18T17:00:26.927Z,62.52
2018-05-18T17:02:55.274Z,61.58
2018-05-18T17:05:23.716Z,62.37
2018-05-18T17:07:52.107Z,63.41
2018-05-18T17:10:20.460Z,63.10
2018-05-18T17:12:48.936Z,62.03
2018-05-18T17:15:17.275Z,63.48
2018-05-18T17:17:45.762Z,63.77
2018-05-18T17:20:14.210Z,65.11
2018-05-18T17:22:42.589Z,65.65
2018-05-18T17:25:10.946Z,65.65
2018-05-18T17:27:39.289Z,65.99
2018-05-18T17:30:07.643Z,66.15
2018-05-18T17:32:36.047Z,65.56
2018-05-18T17:35:05.620Z,65.68
2018-05-18T17:37:33.958Z,66.73
2018-05-18T17:40:02.351Z,66.58
2018-05-18T17:42:30.761Z,66.84
2018-05-18T17:44:59.129Z,66.46
2018-05-18T17:47:27.524Z,66.52
2018-05-18T17:49:55.908Z,67.51
2018-05-18T17:52:24.300Z,66.83
2018-05-18T17:54:52.640Z,66.86
2018-05-18T17:57:21.129Z,66.82
2018-05-18T17:59:49.686Z,66.84
2018-05-18T18:02:18.032Z,66.90
2018-05-18T18:04:46.364Z,67.86
2018-05-18T18:07:14.755Z,68.31
2018-05-18T18:09:43.888Z,69.09
2018-05-18T18:12:12.243Z,69.35
2018-05-18T18:14:40.685Z,69.03
2018-05-18T18:17:09.031Z,70.40
2018-05-18T18:19:38.184Z,69.86
2018-05-18T18:22:06.553Z,70.73
2018-05-18T18:24:34.883Z,70.26
2018-05-18T18:27:03.302Z,70.81
2018-05-18T18:29:31.775Z,70.26
2018-05-18T18:32:00.094Z,70.99
2018-05-18T18:34:28.448Z,71.00
2018-05-18T18:36:56.788Z,71.30
2018-05-18T18:39:26.348Z,71.56
2018-05-18T18:41:54.696Z,71.44
2018-05-18T18:44:23.033Z,72.21
2018-05-18T18:46:51.396Z,71.40
2018-05-18T18:49:19.828Z,72.14
2018-05-18T18:51:48.157Z,72.05
2018-05-18T18:54:16.495Z,71.81
2018-05-18T18:56:44.860Z,71.80
2018-05-18T18:59:13.205Z,71.72
2018-05-18T19:01:41.539Z,71.72
2018-05-18T19:04:10.221Z,72.02
2018-05-18T19:06:38.581Z,72.39
2018-05-18T19:09:06.925Z,72.52
2018-05-18T19:11:35.260Z,72.15
2018-05-18T19:14:03.604Z,72.05
2018-05-18T19:16:31.950Z,71.48
2018-05-18T19:19:00.311Z,73.15
2018-05-18T19:21:28.710Z,72.29
2018-05-18T19:23:57.083Z,73.25
2018-05-18T19:26:25.467Z,72.95
2018-05-18T19:28:53.804Z,73.79
2018-05-18T19:31:22.150Z,74.67
2018-05-18T19:33:50.536Z,74.21
2018-05-18T19:36:18.938Z,75.11
2018-05-18T19:38:47.280Z,75.62
2018-05-18T19:41:16.387Z,76.26
2018-05-18T19:43:44.833Z,76.63
2018-05-18T19:46:13.147Z,77.21
2018-05-18T19:48:41.494Z,77.94
2018-05-18T19:51:09.910Z,78.37
2018-05-18T19:53:38.271Z,78.75
2018-05-18T19:56:07.248Z,78.50
2018-05-18T19:58:36.256Z,79.07
2018-05-18T20:01:04.712Z,79.58
2018-05-18T20:03:33.193Z,80.14
2018-05-18T20:06:01.604Z,80.41
2018-05-18T20:08:29.985Z,80.04
2018-05-18T20:10:58.476Z,79.43
2018-05-18T20:13:27.554Z,78.70
2018-05-18T20:15:56.002Z,79.13
2018-05-18T20:18:24.353Z,78.76
2018-05-18T20:20:52.709Z,78.70
2018-05-18T20:23:21.071Z,78.81
2018-05-18T20:25:49.463Z,79.19
2018-05-18T20:28:17.792Z,78.23
2018-05-18T20:30:46.140Z,78.80
2018-05-18T20:33:14.585Z,79.29
2018-05-18T20:35:43.139Z,78.73
2018-05-18T20:38:11.647Z,78.62
2018-05-18T20:40:39.931Z,77.33
2018-05-18T20:43:08.290Z,77.37
2018-05-18T20:45:36.621Z,77.33
2018-05-18T20:48:04.974Z,77.18
2018-05-18T20:50:33.372Z,77.17
2018-05-18T20:53:01.774Z,76.00
2018-05-18T20:55:30.119Z,74.67
2018-05-18T20:57:58.562Z,76.10
2018-05-18T21:00:26.955Z,76.57
2018-05-18T21:02:55.329Z,77.18
2018-05-18T21:05:23.719Z,76.46
2018-05-18T21:07:52.068Z,76.12
2018-05-18T21:10:20.413Z,76.00
2018-05-18T21:12:48.751Z,74.30
2018-05-18T21:15:17.194Z,73.38
2018-05-18T21:17:45.783Z,74.20
2018-05-18T21:20:14.221Z,72.84
2018-05-18T21:22:42.551Z,74.89
2018-05-18T21:25:10.909Z,75.82
2018-05-18T21:27:39.263Z,75.62
2018-05-18T21:30:07.644Z,76.28
2018-05-18T21:32:36.048Z,76.98
2018-05-18T21:35:04.566Z,76.49
2018-05-18T21:37:32.903Z,76.68
2018-05-18T21:40:01.324Z,76.36
2018-05-18T21:42:29.712Z,75.12
2018-05-18T21:44:58.110Z,76.12
2018-05-18T21:47:26.515Z,76.31
2018-05-18T21:49:54.856Z,76.31
2018-05-18T21:52:23.399Z,76.88
2018-05-18T21:54:52.759Z,76.09
2018-05-18T21:57:21.091Z,76.14
2018-05-18T21:59:49.441Z,76.13
2018-05-18T22:02:17.777Z,76.29
2018-05-18T22:04:46.269Z,75.92
2018-05-18T22:07:14.603Z,75.76
2018-05-18T22:09:42.956Z,76.15
2018-05-18T22:12:11.296Z,75.62
2018-05-18T22:14:39.637Z,75.10
2018-05-18T22:17:08.033Z,76.51
2018-05-18T22:19:36.431Z,74.79
2018-05-18T22:22:04.800Z,75.12
2018-05-18T22:24:33.133Z,76.53
2018-05-18T22:27:01.500Z,75.68
2018-05-18T22:29:29.834Z,75.62
2018-05-18T22:31:58.988Z,74.79
2018-05-18T22:34:27.390Z,74.20
2018-05-18T22:36:55.741Z,75.16
2018-05-18T22:39:24.105Z,74.54
2018-05-18T22:41:52.521Z,75.22
2018-05-18T22:44:20.879Z,75.29
2018-05-18T22:46:49.256Z,75.02
2018-05-18T22:49:17.583Z,76.41
2018-05-18T22:51:45.935Z,76.97
2018-05-18T22:54:14.315Z,76.85
2018-05-18T22:56:42.677Z,77.46
2018-05-18T22:59:11.251Z,76.10
2018-05-18T23:01:39.606Z,77.05
2018-05-18T23:04:07.941Z,76.65
2018-05-18T23:06:36.300Z,76.77
2018-05-18T23:09:05.337Z,76.35
2018-05-18T23:11:33.695Z,76.12
2018-05-18T23:14:02.053Z,76.70
2018-05-18T23:16:30.477Z,77.85
2018-05-18T23:18:58.908Z,77.17
2018-05-18T23:21:27.260Z,77.44
2018-05-18T23:23:55.603Z,77.23
2018-05-18T23:26:24.023Z,77.45
2018-05-18T23:28:52.360Z,77.73
2018-05-18T23:31:20.697Z,77.88
2018-05-18T23:33:49.123Z,77.98
2018-05-18T23:36:17.502Z,78.83
2018-05-18T23:38:45.900Z,79.18
2018-05-18T23:41:14.236Z,79.06
2018-05-18T23:43:42.588Z,78.79
2018-05-18T23:46:10.915Z,78.50
2018-05-18T23:48:39.412Z,78.61
2018-05-18T23:51:07.765Z,79.14
2018-05-18T23:53:36.647Z,78.49
2018-05-18T23:56:04.977Z,77.91
2018-05-18T23:58:33.355Z,78.27
